createdAt,value
2018-11-25T00:00:17.301Z,22.73
2018-11-25T00:02:45.835Z,21.27
2018-11-25T00:05:14.396Z,22.33
2018-11-25T00:07:42.907Z,20.20
2018-11-25T00:10:11.495Z,20.33
2018-11-25T00:12:40.045Z,19.73
2018-11-25T00:15:09.382Z,22.07
2018-11-25T00:17:37.943Z,20.30
2018-11-25T00:20:09.941Z,19.87
2018-11-25T00:22:38.472Z,20.57
2018-11-25T00:25:09.117Z,21.17
2018-11-25T00:27:37.710Z,23.40
2018-11-25T00:30:08.619Z,19.90
2018-11-25T00:32:37.178Z,21.07
2018-11-25T00:35:06.294Z,19.37
2018-11-25T00:37:34.895Z,23.20
2018-11-25T00:40:05.584Z,22.30
2018-11-25T00:42:34.145Z,22.90
2018-11-25T00:45:02.682Z,24.83
2018-11-25T00:47:31.243Z,22.87
2018-11-25T00:49:59.746Z,23.27
2018-11-25T00:52:28.289Z,21.83
2018-11-25T00:54:56.812Z,25.10
2018-11-25T00:57:25.354Z,23.30
2018-11-25T00:59:53.830Z,29.00
2018-11-25T01:02:22.490Z,25.13
2018-11-25T01:04:51.074Z,23.13
2018-11-25T01:07:19.670Z,25.27
2018-11-25T01:09:48.245Z,29.13
2018-11-25T01:12:16.775Z,29.77
2018-11-25T01:14:45.362Z,28.40
2018-11-25T01:17:13.941Z,22.90
2018-11-25T01:19:42.683Z,24.57
2018-11-25T01:22:11.291Z,28.63
2018-11-25T01:24:39.809Z,23.50
2018-11-25T01:27:08.354Z,22.93
2018-11-25T01:29:36.972Z,26.03
2018-11-25T01:32:05.503Z,28.20
2018-11-25T01:34:34.119Z,27.27
2018-11-25T01:37:02.674Z,28.90
2018-11-25T01:39:31.702Z,26.10
2018-11-25T01:42:00.573Z,28.80
2018-11-25T01:44:29.098Z,27.27
2018-11-25T01:46:57.586Z,28.20
2018-11-25T01:49:26.160Z,28.40
2018-11-25T01:51:54.708Z,25.97
2018-11-25T01:54:23.270Z,30.60
2018-11-25T01:56:51.771Z,21.43
2018-11-25T01:59:20.281Z,28.43
2018-11-25T02:01:48.836Z,27.13
2018-11-25T02:04:17.394Z,26.97
2018-11-25T02:06:45.963Z,31.37
2018-11-25T02:09:14.466Z,31.90
2018-11-25T02:11:43.036Z,32.43
2018-11-25T02:14:11.601Z,35.47
2018-11-25T02:16:40.188Z,30.00
2018-11-25T02:19:08.705Z,29.83
2018-11-25T02:21:37.213Z,35.73
2018-11-25T02:24:05.747Z,35.00
2018-11-25T02:26:34.354Z,34.70
2018-11-25T02:29:02.847Z,33.13
2018-11-25T02:31:31.358Z,33.87
2018-11-25T02:33:59.974Z,31.27
2018-11-25T02:36:28.862Z,32.60
2018-11-25T02:38:57.440Z,30.70
2018-11-25T02:41:25.936Z,31.67
2018-11-25T02:43:54.419Z,32.57
2018-11-25T02:46:22.934Z,35.40
2018-11-25T02:48:51.712Z,35.73
2018-11-25T02:51:20.122Z,32.87
2018-11-25T02:53:48.637Z,31.67
2018-11-25T02:56:17.155Z,32.53
2018-11-25T02:58:45.708Z,36.50
2018-11-25T03:01:14.310Z,33.93
2018-11-25T03:03:42.799Z,38.27
2018-11-25T03:06:11.367Z,31.47
2018-11-25T03:08:39.996Z,37.70
2018-11-25T03:11:08.589Z,34.60
2018-11-25T03:13:37.221Z,39.57
2018-11-25T03:16:05.744Z,35.87
2018-11-25T03:18:34.402Z,36.23
2018-11-25T03:21:02.980Z,36.73
2018-11-25T03:23:31.549Z,38.83
2018-11-25T03:26:00.090Z,41.70
2018-11-25T03:28:28.685Z,33.20
2018-11-25T03:30:57.186Z,38.70
2018-11-25T03:33:25.713Z,36.97
2018-11-25T03:35:54.197Z,35.63
2018-11-25T03:38:22.667Z,38.10
2018-11-25T03:40:51.293Z,42.90
2018-11-25T03:43:19.779Z,42.33
2018-11-25T03:45:48.355Z,39.83
2018-11-25T03:48:16.814Z,36.10
2018-11-25T03:50:45.326Z,43.27
2018-11-25T03:53:13.791Z,35.20
2018-11-25T03:55:42.309Z,38.90
2018-11-25T03:58:10.819Z,41.57
2018-11-25T04:00:39.387Z,40.67
2018-11-25T04:03:07.885Z,35.80
2018-11-25T04:05:36.374Z,40.30
2018-11-25T04:08:05.381Z,34.33
2018-11-25T04:10:33.888Z,35.87
2018-11-25T04:13:02.454Z,34.50
2018-11-25T04:15:31.022Z,34.30
2018-11-25T04:17:59.619Z,38.83
2018-11-25T04:20:28.121Z,37.60
2018-11-25T04:22:56.739Z,36.60
2018-11-25T04:25:25.287Z,34.53
2018-11-25T04:27:53.841Z,37.07
2018-11-25T04:30:22.457Z,34.87
2018-11-25T04:32:51.377Z,36.50
2018-11-25T04:35:19.893Z,36.70
2018-11-25T04:37:48.539Z,38.73
2018-11-25T04:40:17.987Z,36.57
2018-11-25T04:42:46.543Z,36.80
2018-11-25T04:45:15.828Z,39.23
2018-11-25T04:47:44.761Z,40.87
2018-11-25T04:50:18.219Z,38.30
2018-11-25T04:52:46.890Z,43.20
2018-11-25T04:55:15.494Z,41.70
2018-11-25T04:57:53.437Z,38.77
2018-11-25T05:00:21.985Z,40.40
2018-11-25T05:02:51.523Z,38.10
2018-11-25T05:05:20.190Z,37.80
2018-11-25T05:07:48.857Z,36.83
2018-11-25T05:10:18.132Z,42.20
2018-11-25T05:12:46.681Z,38.97
2018-11-25T05:15:19.439Z,32.73
2018-11-25T05:17:48.045Z,31.97
2018-11-25T05:20:17.733Z,29.20
2018-11-25T05:22:46.273Z,26.10
2018-11-25T05:25:15.742Z,26.33
2018-11-25T05:27:44.286Z,20.87
2018-11-25T05:30:14.108Z,23.77
2018-11-25T05:32:42.601Z,27.30
2018-11-25T05:35:12.304Z,28.40
2018-11-25T05:37:40.856Z,26.93
2018-11-25T05:40:13.788Z,22.30
2018-11-25T05:42:42.441Z,24.10
2018-11-25T05:45:12.913Z,28.03
2018-11-25T05:47:41.436Z,26.00
2018-11-25T05:50:12.288Z,23.30
2018-11-25T05:52:40.868Z,33.53
2018-11-25T05:55:10.621Z,20.00
2018-11-25T05:57:39.193Z,31.70
2018-11-25T06:00:37.724Z,31.60
2018-11-25T06:03:06.225Z,32.53
2018-11-25T06:05:34.808Z,45.97
2018-11-25T06:08:03.290Z,44.53
2018-11-25T06:10:31.865Z,34.83
2018-11-25T06:13:00.403Z,28.90
2018-11-25T06:15:28.942Z,27.70
2018-11-25T06:17:57.403Z,31.00
2018-11-25T06:20:25.958Z,29.47
2018-11-25T06:22:54.516Z,25.60
2018-11-25T06:25:23.149Z,30.73
2018-11-25T06:27:51.847Z,24.90
2018-11-25T06:30:20.988Z,26.83
2018-11-25T06:32:49.689Z,28.00
2018-11-25T06:35:19.252Z,27.23
2018-11-25T06:37:47.749Z,28.77
2018-11-25T06:40:17.095Z,36.67
2018-11-25T06:42:45.626Z,30.90
2018-11-25T06:45:16.488Z,24.37
2018-11-25T06:47:45.003Z,24.10
2018-11-25T06:50:13.685Z,31.10
2018-11-25T06:52:42.276Z,34.90
2018-11-25T06:55:12.292Z,30.77
2018-11-25T06:57:40.904Z,40.73
2018-11-25T07:00:14.718Z,35.23
2018-11-25T07:02:43.306Z,40.50
2018-11-25T07:05:11.933Z,40.00
2018-11-25T07:07:40.539Z,30.87
2018-11-25T07:10:14.402Z,29.20
2018-11-25T07:12:43.037Z,31.60
2018-11-25T07:15:14.542Z,34.20
2018-11-25T07:17:43.581Z,37.30
2018-11-25T07:20:13.278Z,34.47
2018-11-25T07:22:41.861Z,33.27
2018-11-25T07:25:11.788Z,31.73
2018-11-25T07:27:40.391Z,31.60
2018-11-25T07:30:12.601Z,31.87
2018-11-25T07:32:41.154Z,29.53
2018-11-25T07:35:09.847Z,32.20
2018-11-25T07:37:38.437Z,32.57
2018-11-25T07:40:09.807Z,30.90
2018-11-25T07:42:38.346Z,39.93
2018-11-25T07:45:09.363Z,30.10
2018-11-25T07:47:37.996Z,28.00
2018-11-25T07:50:08.378Z,25.60
2018-11-25T07:52:36.979Z,26.37
2018-11-25T07:55:09.841Z,25.73
2018-11-25T07:57:38.442Z,26.27
2018-11-25T08:00:10.900Z,24.63
2018-11-25T08:02:41.536Z,23.67
2018-11-25T08:05:09.990Z,25.87
2018-11-25T08:07:38.626Z,26.33
2018-11-25T08:10:09.763Z,29.90
2018-11-25T08:12:38.520Z,23.40
2018-11-25T08:15:09.683Z,28.87
2018-11-25T08:17:38.346Z,25.60
2018-11-25T08:20:09.491Z,29.73
2018-11-25T08:22:38.185Z,24.60
2018-11-25T08:25:10.741Z,28.37
2018-11-25T08:27:39.410Z,28.10
2018-11-25T08:30:10.963Z,29.80
2018-11-25T08:32:39.649Z,30.67
2018-11-25T08:35:09.302Z,31.37
2018-11-25T08:37:37.888Z,27.93
2018-11-25T08:40:09.958Z,28.60
2018-11-25T08:42:38.707Z,31.33
2018-11-25T08:45:09.546Z,30.17
2018-11-25T08:47:38.150Z,33.37
2018-11-25T08:50:12.061Z,37.50
2018-11-25T08:52:40.896Z,28.63
2018-11-25T08:55:12.664Z,25.13
2018-11-25T08:57:41.264Z,31.13
2018-11-25T09:00:12.369Z,27.87
2018-11-25T09:02:40.992Z,28.47
2018-11-25T09:05:11.092Z,30.67
2018-11-25T09:07:39.693Z,30.80
2018-11-25T09:10:12.259Z,26.47
2018-11-25T09:12:40.970Z,27.30
2018-11-25T09:15:17.642Z,32.17
2018-11-25T09:17:46.222Z,28.13
2018-11-25T09:20:16.443Z,30.50
2018-11-25T09:22:45.219Z,31.37
2018-11-25T09:25:18.153Z,30.27
2018-11-25T09:27:46.959Z,27.83
2018-11-25T09:30:31.214Z,27.03
2018-11-25T09:32:59.824Z,27.40
2018-11-25T09:35:28.416Z,32.30
2018-11-25T09:37:57.069Z,28.13
2018-11-25T09:40:26.635Z,26.20
2018-11-25T09:42:55.193Z,25.33
2018-11-25T09:45:23.839Z,24.80
2018-11-25T09:47:52.962Z,37.13
2018-11-25T09:50:22.555Z,32.87
2018-11-25T09:52:51.249Z,39.20
2018-11-25T09:55:21.028Z,51.83
2018-11-25T09:58:05.106Z,38.30
2018-11-25T10:00:35.110Z,33.87
2018-11-25T10:03:04.997Z,41.23
2018-11-25T10:05:33.540Z,32.27
2018-11-25T10:08:02.179Z,28.83
2018-11-25T10:10:30.768Z,25.37
2018-11-25T10:12:59.432Z,24.47
2018-11-25T10:15:28.957Z,24.80
2018-11-25T10:17:59.766Z,25.50
2018-11-25T10:20:27.453Z,24.17
2018-11-25T10:22:56.075Z,26.30
2018-11-25T10:25:24.658Z,26.67
2018-11-25T10:27:53.271Z,20.77
2018-11-25T10:30:25.131Z,22.80
2018-11-25T10:32:59.870Z,19.90
2018-11-25T10:35:28.471Z,25.50
2018-11-25T10:37:57.076Z,20.97
2018-11-25T10:40:25.911Z,18.63
2018-11-25T10:42:54.469Z,22.60
2018-11-25T10:45:25.887Z,24.67
2018-11-25T10:47:54.729Z,21.30
2018-11-25T10:50:23.413Z,19.93
2018-11-25T10:52:52.178Z,17.07
2018-11-25T10:55:21.467Z,14.50
2018-11-25T10:57:51.125Z,17.27
2018-11-25T11:00:32.435Z,17.93
2018-11-25T11:03:06.335Z,14.50
2018-11-25T11:05:40.260Z,16.50
2018-11-25T11:08:09.421Z,12.33
2018-11-25T11:10:38.159Z,14.27
2018-11-25T11:13:07.705Z,15.27
2018-11-25T11:15:36.414Z,15.93
2018-11-25T11:18:05.259Z,16.30
2018-11-25T11:20:33.992Z,14.77
2018-11-25T11:23:02.705Z,15.63
2018-11-25T11:25:31.350Z,15.03
2018-11-25T11:27:59.934Z,17.60
2018-11-25T11:30:28.586Z,16.07
2018-11-25T11:32:57.262Z,14.40
2018-11-25T11:35:25.901Z,18.63
2018-11-25T11:37:58.869Z,15.77
2018-11-25T11:40:27.857Z,15.40
2018-11-25T11:42:56.670Z,16.87
2018-11-25T11:45:25.456Z,16.03
2018-11-25T11:47:54.049Z,15.33
2018-11-25T11:50:22.977Z,13.07
2018-11-25T11:52:51.817Z,13.30
2018-11-25T11:55:20.490Z,14.00
2018-11-25T11:57:49.438Z,12.60
2018-11-25T12:00:24.431Z,10.97
2018-11-25T12:02:53.108Z,12.77
2018-11-25T12:05:21.907Z,12.77
2018-11-25T12:07:50.469Z,11.90
2018-11-25T12:10:19.670Z,14.53
2018-11-25T12:12:48.332Z,11.20
2018-11-25T12:15:21.474Z,12.77
2018-11-25T12:17:50.075Z,15.50
2018-11-25T12:20:21.464Z,13.33
2018-11-25T12:22:49.910Z,13.13
2018-11-25T12:25:18.775Z,12.60
2018-11-25T12:27:47.608Z,16.23
2018-11-25T12:30:16.873Z,14.60
2018-11-25T12:32:47.234Z,12.70
2018-11-25T12:35:16.818Z,15.33
2018-11-25T12:37:45.486Z,15.50
2018-11-25T12:40:16.050Z,14.13
2018-11-25T12:42:49.024Z,14.33
2018-11-25T12:45:19.272Z,13.70
2018-11-25T12:47:47.928Z,15.43
2018-11-25T12:50:19.218Z,14.57
2018-11-25T12:52:48.191Z,12.97
2018-11-25T12:55:18.159Z,18.83
2018-11-25T12:57:47.204Z,15.57
2018-11-25T13:00:22.206Z,15.67
2018-11-25T13:02:50.949Z,13.27
2018-11-25T13:05:19.836Z,14.43
2018-11-25T13:07:48.835Z,12.60
2018-11-25T13:10:17.490Z,17.30
2018-11-25T13:12:46.194Z,13.33
2018-11-25T13:15:15.089Z,11.50
2018-11-25T13:17:43.893Z,12.73
2018-11-25T13:20:15.130Z,12.27
2018-11-25T13:22:44.368Z,14.20
2018-11-25T13:25:15.314Z,11.70
2018-11-25T13:27:44.226Z,12.77
2018-11-25T13:30:22.212Z,10.97
2018-11-25T13:32:52.370Z,12.60
2018-11-25T13:35:21.318Z,11.70
2018-11-25T13:37:50.033Z,10.77
2018-11-25T13:40:18.983Z,12.03
2018-11-25T13:42:47.998Z,9.93
2018-11-25T13:45:17.143Z,10.73
2018-11-25T13:47:47.615Z,10.70
2018-11-25T13:50:16.778Z,14.90
2018-11-25T13:52:45.582Z,14.00
2018-11-25T13:55:20.848Z,10.67
2018-11-25T13:57:49.534Z,13.63
2018-11-25T14:00:35.385Z,12.97
2018-11-25T14:03:05.839Z,11.70
2018-11-25T14:05:34.425Z,12.77
2018-11-25T14:08:03.081Z,12.33
2018-11-25T14:10:33.197Z,13.10
2018-11-25T14:13:01.810Z,10.67
2018-11-25T14:15:30.584Z,13.33
2018-11-25T14:17:59.363Z,13.93
2018-11-25T14:20:28.246Z,11.50
2018-11-25T14:22:57.677Z,13.27
2018-11-25T14:25:27.329Z,11.77
2018-11-25T14:27:58.394Z,11.80
2018-11-25T14:30:28.790Z,12.30
2018-11-25T14:32:58.193Z,12.13
2018-11-25T14:35:32.067Z,9.47
2018-11-25T14:38:00.944Z,10.47
2018-11-25T14:40:29.775Z,12.97
2018-11-25T14:42:58.459Z,13.03
2018-11-25T14:45:27.341Z,12.57
2018-11-25T14:47:56.067Z,15.33
2018-11-25T14:50:25.658Z,12.70
2018-11-25T14:52:55.342Z,12.87
2018-11-25T14:55:24.108Z,12.20
2018-11-25T14:57:52.729Z,14.70
2018-11-25T15:00:22.371Z,15.87
2018-11-25T15:02:58.821Z,15.10
2018-11-25T15:05:38.021Z,15.07
2018-11-25T15:08:08.555Z,16.03
2018-11-25T15:10:38.055Z,16.60
2018-11-25T15:13:08.280Z,15.00
2018-11-25T15:15:36.973Z,21.63
2018-11-25T15:18:06.049Z,18.87
2018-11-25T15:20:34.625Z,18.80
2018-11-25T15:23:06.463Z,13.63
2018-11-25T15:25:37.803Z,15.93
2018-11-25T15:28:07.686Z,15.40
2018-11-25T15:30:36.355Z,24.10
2018-11-25T15:33:05.123Z,22.43
2018-11-25T15:35:33.822Z,20.53
2018-11-25T15:38:02.491Z,24.40
2018-11-25T15:40:33.702Z,20.60
2018-11-25T15:43:02.758Z,19.73
2018-11-25T15:45:31.851Z,16.20
2018-11-25T15:48:20.719Z,18.13
2018-11-25T15:50:49.480Z,16.30
2018-11-25T15:53:18.489Z,15.57
2018-11-25T15:55:49.040Z,12.60
2018-11-25T15:58:18.873Z,17.17
2018-11-25T16:00:48.010Z,16.77
2018-11-25T16:03:16.841Z,14.70
2018-11-25T16:05:47.952Z,15.80
2018-11-25T16:08:16.636Z,12.03
2018-11-25T16:10:45.610Z,14.57
2018-11-25T16:13:14.750Z,13.47
2018-11-25T16:15:43.455Z,13.13
2018-11-25T16:18:12.148Z,12.87
2018-11-25T16:20:40.821Z,14.27
2018-11-25T16:23:10.752Z,18.03
2018-11-25T16:25:47.371Z,17.10
2018-11-25T16:28:26.218Z,14.33
2018-11-25T16:30:55.080Z,18.63
2018-11-25T16:33:23.772Z,11.53
2018-11-25T16:35:53.865Z,11.00
2018-11-25T16:38:22.450Z,12.60
2018-11-25T16:40:51.022Z,12.30
2018-11-25T16:43:20.053Z,12.93
2018-11-25T16:45:48.717Z,12.37
2018-11-25T16:48:17.441Z,13.97
2018-11-25T16:50:46.055Z,15.77
2018-11-25T16:53:14.690Z,14.73
2018-11-25T16:55:43.719Z,19.23
2018-11-25T16:58:12.538Z,17.10
2018-11-25T17:00:41.193Z,17.27
2018-11-25T17:03:09.754Z,20.10
2018-11-25T17:05:41.146Z,16.37
2018-11-25T17:08:13.856Z,16.00
2018-11-25T17:10:42.487Z,17.50
2018-11-25T17:13:11.494Z,16.57
2018-11-25T17:15:40.099Z,16.73
2018-11-25T17:18:08.691Z,16.80
2018-11-25T17:20:38.070Z,14.33
2018-11-25T17:23:07.327Z,16.87
2018-11-25T17:25:36.085Z,15.10
2018-11-25T17:28:04.914Z,13.37
2018-11-25T17:30:33.775Z,17.20
2018-11-25T17:33:02.581Z,18.10
2018-11-25T17:35:32.028Z,16.27
2018-11-25T17:38:00.741Z,17.77
2018-11-25T17:40:29.294Z,17.83
2018-11-25T17:42:59.070Z,21.00
2018-11-25T17:45:28.490Z,17.20
2018-11-25T17:47:57.271Z,17.97
2018-11-25T17:50:28.430Z,16.83
2018-11-25T17:52:57.008Z,18.30
2018-11-25T17:55:28.241Z,16.77
2018-11-25T17:57:57.169Z,17.23
2018-11-25T18:00:36.600Z,14.23
2018-11-25T18:03:09.541Z,18.40
2018-11-25T18:05:38.825Z,27.13
2018-11-25T18:08:06.811Z,20.33
2018-11-25T18:10:35.639Z,20.67
2018-11-25T18:13:04.668Z,17.63
2018-11-25T18:15:33.424Z,20.77
2018-11-25T18:18:05.269Z,20.67
2018-11-25T18:20:43.941Z,16.07
2018-11-25T18:23:16.484Z,19.10
2018-11-25T18:25:45.743Z,17.00
2018-11-25T18:28:14.647Z,20.73
2018-11-25T18:30:43.974Z,25.10
2018-11-25T18:33:12.915Z,31.47
2018-11-25T18:35:42.012Z,23.37
2018-11-25T18:38:11.052Z,18.80
2018-11-25T18:40:40.237Z,23.03
2018-11-25T18:43:09.688Z,19.67
2018-11-25T18:45:38.733Z,24.40
2018-11-25T18:48:09.252Z,20.97
2018-11-25T18:50:38.874Z,25.47
2018-11-25T18:53:09.525Z,23.80
2018-11-25T18:55:37.105Z,20.43
2018-11-25T18:58:06.435Z,22.83
2018-11-25T19:00:39.242Z,20.03
2018-11-25T19:03:08.394Z,21.87
2018-11-25T19:05:37.375Z,20.57
2018-11-25T19:08:07.824Z,20.90
2018-11-25T19:10:36.709Z,22.63
2018-11-25T19:13:05.755Z,26.57
2018-11-25T19:15:37.092Z,20.20
2018-11-25T19:18:06.938Z,19.37
2018-11-25T19:20:36.191Z,20.53
2018-11-25T19:23:05.338Z,20.57
2018-11-25T19:25:34.718Z,20.13
2018-11-25T19:28:04.148Z,26.70
2018-11-25T19:30:33.161Z,25.30
2018-11-25T19:33:02.536Z,24.87
2018-11-25T19:35:31.672Z,25.67
2018-11-25T19:38:01.675Z,19.57
2018-11-25T19:40:30.795Z,24.87
2018-11-25T19:43:00.215Z,22.83
2018-11-25T19:45:29.498Z,21.60
2018-11-25T19:47:59.045Z,23.63
2018-11-25T19:50:32.305Z,21.03
2018-11-25T19:53:01.274Z,27.57
2018-11-25T19:55:44.819Z,22.23
2018-11-25T19:58:20.934Z,21.40
2018-11-25T20:00:54.746Z,24.40
2018-11-25T20:03:24.112Z,25.40
2018-11-25T20:05:56.094Z,23.30
2018-11-25T20:08:25.170Z,21.73
2018-11-25T20:10:54.208Z,18.93
2018-11-25T20:13:23.687Z,23.10
2018-11-25T20:15:53.018Z,22.60
2018-11-25T20:18:22.071Z,22.07
2018-11-25T20:22:59.535Z,24.67
2018-11-25T20:25:28.817Z,22.13
2018-11-25T20:27:59.069Z,21.20
2018-11-25T20:30:31.027Z,25.70
2018-11-25T20:33:05.342Z,23.80
2018-11-25T20:35:34.269Z,23.40
2018-11-25T20:38:08.199Z,26.57
2018-11-25T20:40:36.935Z,22.93
2018-11-25T20:43:06.075Z,22.40
2018-11-25T20:45:40.895Z,28.80
2018-11-25T20:48:09.563Z,22.43
2018-11-25T20:50:38.212Z,19.10
2018-11-25T20:53:12.094Z,21.27
2018-11-25T20:55:40.972Z,23.43
2018-11-25T20:58:09.968Z,22.97
2018-11-25T21:00:40.172Z,24.00
2018-11-25T21:03:10.726Z,20.23
2018-11-25T21:05:39.435Z,18.53
2018-11-25T21:08:08.359Z,27.33
2018-11-25T21:10:37.893Z,21.60
2018-11-25T21:13:08.194Z,26.57
2018-11-25T21:15:36.914Z,26.97
2018-11-25T21:18:06.035Z,22.07
2018-11-25T21:20:35.249Z,26.53
2018-11-25T21:23:03.778Z,24.60
2018-11-25T21:25:33.825Z,27.33
2018-11-25T21:28:02.388Z,21.43
2018-11-25T21:30:30.971Z,26.20
2018-11-25T21:32:59.552Z,20.83
2018-11-25T21:35:28.085Z,24.80
2018-11-25T21:37:56.693Z,21.03
2018-11-25T21:40:25.770Z,22.73
2018-11-25T21:42:54.335Z,24.27
2018-11-25T21:45:23.071Z,18.63
2018-11-25T21:47:51.585Z,22.33
2018-11-25T21:50:30.048Z,26.00
2018-11-25T21:52:59.430Z,26.33
2018-11-25T21:55:28.441Z,25.80
2018-11-25T21:57:57.471Z,21.10
2018-11-25T22:00:26.625Z,29.17
2018-11-25T22:02:55.731Z,24.63
2018-11-25T22:05:25.256Z,29.07
2018-11-25T22:07:54.237Z,29.03
2018-11-25T22:10:22.853Z,31.23
2018-11-25T22:12:51.566Z,27.83
2018-11-25T22:15:21.752Z,30.80
2018-11-25T22:17:50.379Z,28.87
2018-11-25T22:20:19.312Z,30.43
2018-11-25T22:22:47.857Z,25.63
2018-11-25T22:25:18.954Z,23.13
2018-11-25T22:27:47.726Z,27.80
2018-11-25T22:30:17.310Z,32.53
2018-11-25T22:32:45.940Z,21.90
2018-11-25T22:35:15.638Z,29.13
2018-11-25T22:37:44.242Z,25.10
2018-11-25T22:40:13.851Z,29.00
2018-11-25T22:42:43.541Z,28.83
2018-11-25T22:45:14.093Z,21.40
2018-11-25T22:47:42.663Z,24.27
2018-11-25T22:50:12.502Z,24.37
2018-11-25T22:52:41.058Z,22.53
2018-11-25T22:55:12.049Z,24.17
2018-11-25T22:57:40.594Z,22.47
2018-11-25T23:00:42.503Z,19.97
2018-11-25T23:03:11.065Z,17.60
2018-11-25T23:05:50.680Z,24.27
2018-11-25T23:08:19.234Z,24.83
2018-11-25T23:10:47.903Z,22.37
2018-11-25T23:13:16.651Z,26.40
2018-11-25T23:15:45.232Z,23.73
2018-11-25T23:18:13.898Z,32.97
2018-11-25T23:20:42.453Z,24.10
2018-11-25T23:23:10.970Z,22.80
2018-11-25T23:25:39.475Z,22.00
2018-11-25T23:28:08.064Z,21.63
2018-11-25T23:30:36.615Z,27.33
2018-11-25T23:33:05.247Z,25.70
2018-11-25T23:35:34.446Z,23.30
2018-11-25T23:38:02.981Z,22.13
2018-11-25T23:40:31.616Z,25.73
2018-11-25T23:43:00.179Z,25.57
2018-11-25T23:45:28.830Z,22.97
2018-11-25T23:47:57.380Z,22.30
2018-11-25T23:50:25.994Z,23.30
2018-11-25T23:52:54.581Z,21.57
2018-11-25T23:55:23.189Z,25.47
2018-11-25T23:57:51.698Z,24.40
